Time;durP1;ratioP1;P1;durP2;ratioP2;P2;SDS_P1;SDS_P2;PMS_P1;PMS_P2;Temp;Humidity;BMP_temperature;BMP_pressure;BME280_temperature;BME280_humidity;BME280_pressure;Samples;Min_cycle;Max_cycle;Signal;HPM_P1;HPM_P2
2023/04/16 00:01:59;;;;;;;;;;;15.00;54.20;;;;;;5071650;28;19924;-67
2023/04/16 00:04:24;;;;;;;;;;;15.00;54.20;;;;;;5071896;28;19978;-67
2023/04/16 00:06:50;;;;;;;;;;;15.00;54.20;;;;;;5070716;28;19920;-67
2023/04/16 00:09:15;;;;;;;;;;;15.00;54.20;;;;;;5070379;28;20380;-67
2023/04/16 00:11:41;;;;;;;;;;;15.00;54.20;;;;;;5082079;28;19925;-67
2023/04/16 00:14:06;;;;;;;;;;;15.00;54.20;;;;;;5073613;28;19927;-67
2023/04/16 00:16:32;;;;;;;;;;;15.00;54.20;;;;;;5073579;28;19981;-67
2023/04/16 00:18:57;;;;;;;;;;;15.00;54.30;;;;;;5093008;28;20321;-67
2023/04/16 00:21:23;;;;;;;;;;;15.00;54.20;;;;;;5077666;28;20158;-67
2023/04/16 00:23:48;;;;;;;;;;;15.00;54.30;;;;;;5077158;28;20387;-67
2023/04/16 00:26:14;;;;;;;;;;;15.00;54.30;;;;;;5077435;28;19927;-67
2023/04/16 00:28:40;;;;;;;;;;;15.00;54.40;;;;;;5077119;28;19920;-67
2023/04/16 00:31:06;;;;;;;;;;;15.00;54.40;;;;;;5077222;28;19927;-67
2023/04/16 00:33:31;;;;;;;;;;;14.90;54.30;;;;;;5076945;28;19924;-67
2023/04/16 00:35:57;;;;;;;;;;;15.00;54.40;;;;;;5076897;28;19934;-67
2023/04/16 00:38:22;;;;;;;;;;;14.90;54.30;;;;;;5095326;28;19920;-67
2023/04/16 00:40:48;;;;;;;;;;;15.00;54.40;;;;;;5077128;28;20296;-67
2023/04/16 00:43:21;;;;;;;;;;;14.90;54.40;;;;;;5077230;28;19942;-67
2023/04/16 00:45:47;;;;;;;;;;;15.00;54.40;;;;;;5076837;28;19920;-67
2023/04/16 00:48:12;;;;;;;;;;;14.90;54.40;;;;;;5076777;28;19973;-67
2023/04/16 00:50:38;;;;;;;;;;;14.90;54.40;;;;;;5095087;28;19924;-67
2023/04/16 00:53:04;;;;;;;;;;;14.90;54.40;;;;;;5094946;28;19924;-67
2023/04/16 00:55:30;;;;;;;;;;;14.90;54.40;;;;;;5076874;28;20010;-67
2023/04/16 00:57:55;;;;;;;;;;;14.90;54.40;;;;;;5076839;28;19931;-67
2023/04/16 01:00:21;;;;;;;;;;;15.00;54.50;;;;;;5076804;28;20295;-67
2023/04/16 01:02:46;;;;;;;;;;;14.90;54.40;;;;;;5076397;28;19927;-67
2023/04/16 01:05:12;;;;;;;;;;;14.90;54.40;;;;;;5076714;28;20015;-67
2023/04/16 01:07:37;;;;;;;;;;;14.90;54.40;;;;;;5094514;28;19920;-67
2023/04/16 01:10:03;;;;;;;;;;;14.90;54.50;;;;;;5076525;28;20010;-67
2023/04/16 01:12:28;;;;;;;;;;;14.90;54.40;;;;;;5094116;28;19924;-67
2023/04/16 01:14:54;;;;;;;;;;;14.90;54.40;;;;;;5076385;28;19921;-67
2023/04/16 01:17:19;;;;;;;;;;;14.90;54.40;;;;;;5076387;28;20295;-67
2023/04/16 01:19:45;;;;;;;;;;;14.90;54.40;;;;;;5076494;28;19928;-67
2023/04/16 01:22:10;;;;;;;;;;;14.90;54.40;;;;;;5076110;28;20307;-67
2023/04/16 01:24:36;;;;;;;;;;;14.90;54.40;;;;;;5094132;28;19920;-67
2023/04/16 01:27:02;;;;;;;;;;;14.90;54.40;;;;;;5076344;28;19927;-67
2023/04/16 01:29:27;;;;;;;;;;;14.90;54.40;;;;;;5076031;28;19920;-67
2023/04/16 01:31:53;;;;;;;;;;;14.90;54.40;;;;;;5075981;28;19947;-67
2023/04/16 01:34:18;;;;;;;;;;;14.90;54.40;;;;;;5075899;28;19920;-67
2023/04/16 01:36:44;;;;;;;;;;;14.90;54.40;;;;;;5075658;28;19920;-67
2023/04/16 01:39:14;;;;;;;;;;;14.90;54.40;;;;;;5093981;28;20007;-67
2023/04/16 01:41:40;;;;;;;;;;;14.90;54.50;;;;;;5075670;28;20014;-67
2023/04/16 01:44:05;;;;;;;;;;;14.90;54.50;;;;;;5075770;28;20015;-67
2023/04/16 01:46:32;;;;;;;;;;;14.90;54.50;;;;;;5075864;28;19920;-67
2023/04/16 01:48:57;;;;;;;;;;;14.90;54.50;;;;;;5075740;28;19920;-67
2023/04/16 01:51:23;;;;;;;;;;;14.90;54.50;;;;;;5075505;28;20402;-67
2023/04/16 01:53:49;;;;;;;;;;;14.90;54.50;;;;;;5075815;28;19920;-67
2023/04/16 01:56:14;;;;;;;;;;;14.90;54.50;;;;;;5075409;28;20437;-67
2023/04/16 01:58:41;;;;;;;;;;;14.90;54.60;;;;;;5075440;28;19920;-67
2023/04/16 02:01:07;;;;;;;;;;;14.90;54.60;;;;;;5093970;28;19920;-67
2023/04/16 02:03:33;;;;;;;;;;;14.90;54.60;;;;;;5075495;28;20486;-67
2023/04/16 02:05:58;;;;;;;;;;;14.90;54.50;;;;;;5075220;28;19920;-68
2023/04/16 02:08:24;;;;;;;;;;;14.80;54.50;;;;;;5093614;28;20019;-67
2023/04/16 02:10:49;;;;;;;;;;;14.90;54.50;;;;;;5071676;28;19932;-67
2023/04/16 02:13:15;;;;;;;;;;;14.90;54.50;;;;;;5072866;28;20020;-67
2023/04/16 02:15:45;;;;;;;;;;;14.90;54.50;;;;;;5072032;28;19920;-67
2023/04/16 02:18:10;;;;;;;;;;;14.90;54.60;;;;;;5071593;28;19921;-67
2023/04/16 02:20:39;;;;;;;;;;;14.90;54.60;;;;;;5071630;28;19928;-68
2023/04/16 02:23:04;;;;;;;;;;;14.90;54.60;;;;;;5071862;28;19920;-67
2023/04/16 02:25:30;;;;;;;;;;;14.90;54.60;;;;;;5072978;28;19920;-67
2023/04/16 02:27:55;;;;;;;;;;;14.90;54.60;;;;;;5072727;28;20425;-67
2023/04/16 02:30:24;;;;;;;;;;;14.80;54.50;;;;;;5072824;28;19974;-67
2023/04/16 02:32:49;;;;;;;;;;;14.90;54.60;;;;;;5071959;28;19931;-67
2023/04/16 02:35:15;;;;;;;;;;;14.80;54.60;;;;;;5073100;28;19925;-67
2023/04/16 02:37:40;;;;;;;;;;;14.80;54.60;;;;;;5071544;28;20376;-67
2023/04/16 02:40:06;;;;;;;;;;;14.80;54.60;;;;;;5071703;28;19966;-67
2023/04/16 02:42:32;;;;;;;;;;;14.80;54.60;;;;;;5070988;28;19969;-67
2023/04/16 02:44:57;;;;;;;;;;;14.80;54.60;;;;;;5071587;28;19924;-67
2023/04/16 02:47:23;;;;;;;;;;;14.80;54.60;;;;;;5072967;28;19920;-67
2023/04/16 02:49:48;;;;;;;;;;;14.80;54.60;;;;;;5071038;28;20042;-67
2023/04/16 02:52:14;;;;;;;;;;;14.80;54.70;;;;;;5071385;28;19925;-67
2023/04/16 02:54:39;;;;;;;;;;;14.80;54.70;;;;;;5071471;28;19928;-67
2023/04/16 02:57:05;;;;;;;;;;;14.80;54.70;;;;;;5071415;28;19924;-67
2023/04/16 02:59:30;;;;;;;;;;;14.80;54.70;;;;;;5071335;28;19921;-67
2023/04/16 03:01:56;;;;;;;;;;;14.80;54.70;;;;;;5072334;28;20387;-67
2023/04/16 03:04:21;;;;;;;;;;;14.80;54.70;;;;;;5072812;28;20063;-67
2023/04/16 03:06:47;;;;;;;;;;;14.80;54.70;;;;;;5070928;28;19948;-67
2023/04/16 03:09:12;;;;;;;;;;;14.80;54.80;;;;;;5070995;28;19920;-67
2023/04/16 03:11:38;;;;;;;;;;;14.80;54.80;;;;;;5082076;28;19978;-67
2023/04/16 03:14:03;;;;;;;;;;;14.80;54.80;;;;;;5092459;28;20157;-67
2023/04/16 03:16:29;;;;;;;;;;;14.80;54.80;;;;;;5074182;28;19927;-67
2023/04/16 03:18:54;;;;;;;;;;;14.80;54.80;;;;;;5074564;28;20333;-67
2023/04/16 03:21:20;;;;;;;;;;;14.80;54.80;;;;;;5074139;28;20341;-67
2023/04/16 03:23:45;;;;;;;;;;;14.80;54.80;;;;;;5074214;28;19956;-67
2023/04/16 03:26:11;;;;;;;;;;;14.80;54.80;;;;;;5092112;28;20362;-67
2023/04/16 03:28:36;;;;;;;;;;;14.70;54.80;;;;;;5092189;28;19920;-67
2023/04/16 03:31:02;;;;;;;;;;;14.80;54.80;;;;;;5073313;28;19960;-67
2023/04/16 03:33:27;;;;;;;;;;;14.80;54.90;;;;;;5074107;28;19943;-67
2023/04/16 03:35:54;;;;;;;;;;;14.80;54.90;;;;;;5091926;28;20324;-67
2023/04/16 03:38:19;;;;;;;;;;;14.70;54.80;;;;;;5092125;28;19920;-67
2023/04/16 03:40:45;;;;;;;;;;;14.80;54.90;;;;;;5092045;28;20287;-67
2023/04/16 03:43:10;;;;;;;;;;;14.80;54.90;;;;;;5092371;28;20007;-67
2023/04/16 03:45:36;;;;;;;;;;;14.80;55.00;;;;;;5074241;28;20363;-67
2023/04/16 03:48:01;;;;;;;;;;;14.70;54.90;;;;;;5091980;28;19927;-67
2023/04/16 03:50:27;;;;;;;;;;;14.80;55.00;;;;;;5092260;28;20401;-67
2023/04/16 03:52:52;;;;;;;;;;;14.70;54.90;;;;;;5092068;28;20019;-67
2023/04/16 03:55:18;;;;;;;;;;;14.80;54.90;;;;;;5077424;28;19955;-67
2023/04/16 03:57:43;;;;;;;;;;;14.70;54.90;;;;;;5078004;28;20313;-67
2023/04/16 04:00:09;;;;;;;;;;;14.80;55.00;;;;;;5077608;28;20295;-67
2023/04/16 04:02:34;;;;;;;;;;;14.80;55.00;;;;;;5096266;28;19965;-67
2023/04/16 04:05:00;;;;;;;;;;;14.70;54.90;;;;;;5077975;28;19920;-67
2023/04/16 04:07:25;;;;;;;;;;;14.70;55.00;;;;;;5077373;28;20283;-67
2023/04/16 04:09:51;;;;;;;;;;;14.70;54.90;;;;;;5078037;28;20011;-67
2023/04/16 04:12:16;;;;;;;;;;;14.70;55.00;;;;;;5095206;28;20429;-67
2023/04/16 04:14:42;;;;;;;;;;;14.70;54.90;;;;;;5095528;28;19920;-67
2023/04/16 04:17:07;;;;;;;;;;;14.70;55.00;;;;;;5077568;28;20533;-67
2023/04/16 04:19:33;;;;;;;;;;;14.70;54.90;;;;;;5077307;28;19926;-67
2023/04/16 04:21:58;;;;;;;;;;;14.70;54.90;;;;;;5077361;28;20018;-67
2023/04/16 04:24:25;;;;;;;;;;;14.70;54.90;;;;;;5094586;28;19936;-67
2023/04/16 04:26:51;;;;;;;;;;;14.70;55.00;;;;;;5077633;28;19920;-67
2023/04/16 04:29:16;;;;;;;;;;;14.70;55.00;;;;;;5077148;28;20291;-67
2023/04/16 04:31:42;;;;;;;;;;;14.70;54.90;;;;;;5095250;28;19924;-67
2023/04/16 04:34:07;;;;;;;;;;;14.70;55.00;;;;;;5077468;28;20104;-67
2023/04/16 04:36:33;;;;;;;;;;;14.70;55.00;;;;;;5076843;28;19920;-67
2023/04/16 04:38:58;;;;;;;;;;;14.70;55.00;;;;;;5077207;28;19920;-67
2023/04/16 04:41:25;;;;;;;;;;;14.70;55.00;;;;;;5095126;28;20015;-67
2023/04/16 04:43:51;;;;;;;;;;;14.70;55.00;;;;;;5077093;28;19920;-67
2023/04/16 04:46:16;;;;;;;;;;;14.70;55.00;;;;;;5077074;28;19927;-67
2023/04/16 04:48:42;;;;;;;;;;;14.70;55.00;;;;;;5094887;28;19922;-67
2023/04/16 04:51:07;;;;;;;;;;;14.70;55.00;;;;;;5095122;28;19928;-67
2023/04/16 04:53:33;;;;;;;;;;;14.70;55.10;;;;;;5076645;28;20437;-67
2023/04/16 04:55:58;;;;;;;;;;;14.70;55.10;;;;;;5076626;28;20031;-67
2023/04/16 04:58:24;;;;;;;;;;;14.70;55.10;;;;;;5076898;28;19936;-67
2023/04/16 05:00:50;;;;;;;;;;;14.70;55.10;;;;;;5076516;28;20018;-67
2023/04/16 05:03:18;;;;;;;;;;;14.70;55.10;;;;;;5094667;28;19924;-67
2023/04/16 05:05:43;;;;;;;;;;;14.60;55.00;;;;;;5076525;28;19920;-67
2023/04/16 05:08:09;;;;;;;;;;;14.70;55.10;;;;;;5076426;28;19973;-67
2023/04/16 05:10:35;;;;;;;;;;;14.70;55.10;;;;;;5076364;28;19975;-67
2023/04/16 05:13:00;;;;;;;;;;;14.70;55.10;;;;;;5093820;28;19935;-67
2023/04/16 05:15:26;;;;;;;;;;;14.70;55.10;;;;;;5094566;28;19920;-67
2023/04/16 05:17:51;;;;;;;;;;;14.60;55.10;;;;;;5076533;28;19927;-67
2023/04/16 05:20:17;;;;;;;;;;;14.70;55.10;;;;;;5076347;28;19920;-67
2023/04/16 05:22:43;;;;;;;;;;;14.60;55.10;;;;;;5076478;28;19920;-67
2023/04/16 05:25:08;;;;;;;;;;;14.60;55.10;;;;;;5076190;28;19928;-67
2023/04/16 05:27:34;;;;;;;;;;;14.70;55.10;;;;;;5076054;28;19920;-67
2023/04/16 05:29:59;;;;;;;;;;;14.60;55.10;;;;;;5075974;28;19920;-67
2023/04/16 05:32:25;;;;;;;;;;;14.60;55.10;;;;;;5076061;28;19966;-67
2023/04/16 05:34:51;;;;;;;;;;;14.60;55.20;;;;;;5076497;28;19926;-67
2023/04/16 05:37:16;;;;;;;;;;;14.60;55.10;;;;;;5075964;28;20279;-67
2023/04/16 05:39:42;;;;;;;;;;;14.60;55.10;;;;;;5075816;28;19920;-67
2023/04/16 05:42:07;;;;;;;;;;;14.60;55.10;;;;;;5075969;28;19920;-67
2023/04/16 05:44:33;;;;;;;;;;;14.60;55.10;;;;;;5094126;28;19934;-67
2023/04/16 05:46:59;;;;;;;;;;;14.60;55.10;;;;;;5075666;28;19920;-67
2023/04/16 05:49:24;;;;;;;;;;;14.60;55.10;;;;;;5075820;28;19967;-67
2023/04/16 05:51:50;;;;;;;;;;;14.60;55.10;;;;;;5093933;28;19924;-67
2023/04/16 05:54:15;;;;;;;;;;;14.60;55.10;;;;;;5093623;28;19947;-67
2023/04/16 05:56:41;;;;;;;;;;;14.60;55.10;;;;;;5075366;28;20012;-67
2023/04/16 05:59:06;;;;;;;;;;;14.60;55.10;;;;;;5075439;28;19920;-67
2023/04/16 06:01:31;;;;;;;;;;;14.60;55.10;;;;;;5075359;28;20022;-67
2023/04/16 06:03:57;;;;;;;;;;;14.60;55.10;;;;;;5075651;28;19920;-67
2023/04/16 06:06:22;;;;;;;;;;;14.60;55.10;;;;;;5093656;28;19927;-67
2023/04/16 06:08:48;;;;;;;;;;;14.70;55.20;;;;;;5075431;28;19962;-67
2023/04/16 06:11:13;;;;;;;;;;;14.60;55.10;;;;;;5093018;28;19924;-67
2023/04/16 06:13:39;;;;;;;;;;;14.60;55.10;;;;;;5093147;28;19954;-67
2023/04/16 06:16:04;;;;;;;;;;;14.70;55.10;;;;;;5092882;28;19973;-67
2023/04/16 06:18:30;;;;;;;;;;;14.60;55.00;;;;;;5093282;28;19963;-67
2023/04/16 06:20:57;;;;;;;;;;;14.60;55.00;;;;;;5075047;28;20448;-67
2023/04/16 06:23:23;;;;;;;;;;;14.60;55.10;;;;;;5075315;28;19920;-67
2023/04/16 06:25:48;;;;;;;;;;;14.60;55.00;;;;;;5074929;28;19920;-67
2023/04/16 06:28:14;;;;;;;;;;;14.60;55.00;;;;;;5075099;28;19920;-67
2023/04/16 06:30:39;;;;;;;;;;;14.60;55.00;;;;;;5074814;28;19981;-67
2023/04/16 06:33:05;;;;;;;;;;;14.60;55.00;;;;;;5074765;28;19924;-67
2023/04/16 06:35:30;;;;;;;;;;;14.70;55.00;;;;;;5075059;28;20018;-67
2023/04/16 06:37:56;;;;;;;;;;;14.60;55.00;;;;;;5092922;28;19974;-67
2023/04/16 06:40:21;;;;;;;;;;;14.60;55.00;;;;;;5092907;28;20438;-67
2023/04/16 06:42:47;;;;;;;;;;;14.60;54.90;;;;;;5092735;28;19920;-67
2023/04/16 06:45:12;;;;;;;;;;;14.60;54.90;;;;;;5074995;28;20030;-67
2023/04/16 06:47:38;;;;;;;;;;;14.60;54.90;;;;;;5074519;28;19924;-67
2023/04/16 06:50:03;;;;;;;;;;;14.70;54.90;;;;;;5074578;28;19920;-67
2023/04/16 06:52:29;;;;;;;;;;;14.70;55.00;;;;;;5074548;28;20035;-67
2023/04/16 06:54:55;;;;;;;;;;;14.70;54.90;;;;;;5074547;28;19928;-67
2023/04/16 06:57:20;;;;;;;;;;;14.70;54.90;;;;;;5074436;28;20383;-67
2023/04/16 06:59:46;;;;;;;;;;;14.70;54.90;;;;;;5074340;28;19927;-67
2023/04/16 07:02:11;;;;;;;;;;;14.70;54.90;;;;;;5074630;28;20018;-67
2023/04/16 07:04:37;;;;;;;;;;;14.70;54.90;;;;;;5074440;28;19934;-67
2023/04/16 07:07:02;;;;;;;;;;;14.70;54.90;;;;;;5074656;28;19924;-67
2023/04/16 07:09:28;;;;;;;;;;;14.70;54.90;;;;;;5074419;28;20010;-67
2023/04/16 07:11:53;;;;;;;;;;;14.70;54.90;;;;;;5073884;28;19924;-67
2023/04/16 07:14:19;;;;;;;;;;;14.70;54.90;;;;;;5074515;28;19969;-67
2023/04/16 07:16:44;;;;;;;;;;;14.70;54.90;;;;;;5074411;28;19970;-67
2023/04/16 07:19:10;;;;;;;;;;;14.60;54.90;;;;;;5074628;28;20078;-67
2023/04/16 07:21:35;;;;;;;;;;;14.70;55.00;;;;;;5074174;28;20311;-67
2023/04/16 07:24:01;;;;;;;;;;;14.70;54.90;;;;;;5074355;28;19967;-67
2023/04/16 07:26:27;;;;;;;;;;;14.70;54.90;;;;;;5092145;28;19920;-67
2023/04/16 07:28:52;;;;;;;;;;;14.70;54.90;;;;;;5077214;28;20373;-67
2023/04/16 07:31:18;;;;;;;;;;;14.70;54.90;;;;;;5096585;28;20245;-67
2023/04/16 07:33:43;;;;;;;;;;;14.70;54.90;;;;;;5096584;28;20498;-67
2023/04/16 07:36:09;;;;;;;;;;;14.70;54.90;;;;;;5078066;28;19921;-67
2023/04/16 07:38:35;;;;;;;;;;;14.70;54.80;;;;;;5078342;28;20017;-67
2023/04/16 07:41:00;;;;;;;;;;;14.70;54.80;;;;;;5096259;28;19973;-67
2023/04/16 07:43:26;;;;;;;;;;;14.70;54.80;;;;;;5078262;28;19943;-67
2023/04/16 07:45:51;;;;;;;;;;;14.70;54.80;;;;;;5096158;28;19921;-67
2023/04/16 07:48:17;;;;;;;;;;;14.70;54.80;;;;;;5077791;28;19920;-67
2023/04/16 07:50:42;;;;;;;;;;;14.70;54.80;;;;;;5078186;28;19946;-67
2023/04/16 07:53:08;;;;;;;;;;;14.70;54.70;;;;;;5077721;28;19970;-66
2023/04/16 07:55:34;;;;;;;;;;;14.70;54.70;;;;;;5096122;28;20003;-67
2023/04/16 07:57:59;;;;;;;;;;;14.70;54.70;;;;;;5077925;28;19920;-66
2023/04/16 08:00:25;;;;;;;;;;;14.70;54.60;;;;;;5077721;28;19946;-66
2023/04/16 08:02:50;;;;;;;;;;;14.80;54.70;;;;;;5077773;28;19968;-67
2023/04/16 08:05:16;;;;;;;;;;;14.70;54.60;;;;;;5095885;28;20411;-67
2023/04/16 08:07:41;;;;;;;;;;;14.80;54.70;;;;;;5077517;28;19926;-67
2023/04/16 08:10:07;;;;;;;;;;;14.80;54.70;;;;;;5077680;28;20018;-67
2023/04/16 08:12:33;;;;;;;;;;;14.80;54.70;;;;;;5095342;28;19924;-66
2023/04/16 08:14:59;;;;;;;;;;;14.80;54.70;;;;;;5095482;28;19920;-66
2023/04/16 08:17:24;;;;;;;;;;;14.80;54.70;;;;;;5095486;28;19924;-67
2023/04/16 08:19:50;;;;;;;;;;;14.80;54.70;;;;;;5077635;28;19920;-67
2023/04/16 08:22:15;;;;;;;;;;;14.80;54.70;;;;;;5095772;28;20320;-67
2023/04/16 08:24:41;;;;;;;;;;;14.80;54.60;;;;;;5095639;28;19927;-66
2023/04/16 08:27:07;;;;;;;;;;;14.80;54.70;;;;;;5077480;28;20377;-66
2023/04/16 08:29:32;;;;;;;;;;;14.80;54.60;;;;;;5095603;28;19932;-67
2023/04/16 08:31:58;;;;;;;;;;;14.80;54.60;;;;;;5077044;28;19928;-66
2023/04/16 08:34:23;;;;;;;;;;;14.80;54.60;;;;;;5076941;28;20022;-66
2023/04/16 08:36:49;;;;;;;;;;;14.70;54.60;;;;;;5095383;28;20271;-66
2023/04/16 08:39:15;;;;;;;;;;;14.80;54.60;;;;;;5094719;28;20413;-66
2023/04/16 08:41:43;;;;;;;;;;;14.80;54.60;;;;;;5095220;28;19920;-66
2023/04/16 08:44:10;;;;;;;;;;;14.80;54.60;;;;;;5077282;28;19924;-66
2023/04/16 08:46:36;;;;;;;;;;;14.80;54.60;;;;;;5095231;28;19924;-67
2023/04/16 08:49:04;;;;;;;;;;;14.80;54.70;;;;;;5076651;28;19920;-66
2023/04/16 08:51:32;;;;;;;;;;;14.80;54.60;;;;;;5094919;28;19928;-66
2023/04/16 08:54:02;;;;;;;;;;;14.70;54.60;;;;;;5077055;28;19926;-66
2023/04/16 08:56:29;;;;;;;;;;;14.80;54.60;;;;;;5076613;28;19920;-66
2023/04/16 08:58:57;;;;;;;;;;;14.80;54.60;;;;;;5076706;28;19974;-67
2023/04/16 09:01:24;;;;;;;;;;;14.80;54.60;;;;;;5076850;28;20352;-66
2023/04/16 09:03:49;;;;;;;;;;;14.80;54.60;;;;;;5095162;28;19919;-67
2023/04/16 09:06:15;;;;;;;;;;;14.80;54.60;;;;;;5076541;28;20379;-66
2023/04/16 09:08:42;;;;;;;;;;;14.80;54.60;;;;;;5094620;28;20283;-66
2023/04/16 09:11:08;;;;;;;;;;;14.80;54.60;;;;;;5076157;28;19924;-66
2023/04/16 09:13:35;;;;;;;;;;;14.80;54.60;;;;;;5094422;28;19931;-66
2023/04/16 09:16:01;;;;;;;;;;;14.80;54.60;;;;;;5094370;28;19920;-67
2023/04/16 09:18:27;;;;;;;;;;;14.80;54.50;;;;;;5094617;28;19920;-66
2023/04/16 09:20:55;;;;;;;;;;;14.80;54.50;;;;;;5076208;28;19920;-66
2023/04/16 09:23:20;;;;;;;;;;;14.80;54.50;;;;;;5094263;28;19971;-66
2023/04/16 09:25:46;;;;;;;;;;;14.90;54.60;;;;;;5076446;28;20338;-67
2023/04/16 09:28:11;;;;;;;;;;;14.90;54.50;;;;;;5076308;28;19920;-66
2023/04/16 09:30:37;;;;;;;;;;;14.90;54.50;;;;;;5094230;28;20371;-67
2023/04/16 09:33:11;;;;;;;;;;;14.80;54.40;;;;;;5094167;28;19931;-66
2023/04/16 09:35:51;;;;;;;;;;;14.90;54.40;;;;;;5094094;28;19920;-66
2023/04/16 09:38:18;;;;;;;;;;;14.90;54.40;;;;;;5076049;28;19921;-66
2023/04/16 09:40:44;;;;;;;;;;;14.90;54.40;;;;;;5094068;28;19920;-66
2023/04/16 09:43:10;;;;;;;;;;;14.90;54.40;;;;;;5075778;28;20021;-66
2023/04/16 09:45:46;;;;;;;;;;;14.90;54.40;;;;;;5075955;28;20014;-66
2023/04/16 09:48:12;;;;;;;;;;;14.90;54.40;;;;;;5093992;28;20015;-66
2023/04/16 09:50:37;;;;;;;;;;;14.90;54.30;;;;;;5093757;28;20018;-66
2023/04/16 09:53:03;;;;;;;;;;;14.90;54.30;;;;;;5074814;28;20406;-66
2023/04/16 09:55:28;;;;;;;;;;;14.90;54.30;;;;;;5075887;28;19928;-67
2023/04/16 09:57:57;;;;;;;;;;;14.90;54.30;;;;;;5075734;28;19924;-66
2023/04/16 10:00:23;;;;;;;;;;;14.90;54.30;;;;;;5075345;28;19920;-66
2023/04/16 10:02:48;;;;;;;;;;;14.90;54.20;;;;;;5075597;28;20023;-66
2023/04/16 10:05:17;;;;;;;;;;;14.90;54.20;;;;;;5075414;28;20003;-66
2023/04/16 10:07:43;;;;;;;;;;;14.90;54.20;;;;;;5075532;28;20371;-66
2023/04/16 10:10:09;;;;;;;;;;;14.90;54.20;;;;;;5075332;28;19945;-66
2023/04/16 10:12:34;;;;;;;;;;;15.00;54.20;;;;;;5093087;28;19969;-66
2023/04/16 10:15:00;;;;;;;;;;;15.00;54.20;;;;;;5075352;28;19927;-66
2023/04/16 10:17:28;;;;;;;;;;;15.00;54.20;;;;;;5093245;28;19924;-66
2023/04/16 10:19:54;;;;;;;;;;;15.00;54.20;;;;;;5075379;28;20435;-66
2023/04/16 10:22:20;;;;;;;;;;;15.00;54.20;;;;;;5075381;28;19920;-66
2023/04/16 10:24:46;;;;;;;;;;;15.00;54.20;;;;;;5075224;28;20268;-66
2023/04/16 10:27:12;;;;;;;;;;;15.00;54.10;;;;;;5075236;28;19920;-66
2023/04/16 10:29:37;;;;;;;;;;;15.00;54.10;;;;;;5074789;28;20006;-66
2023/04/16 10:32:05;;;;;;;;;;;15.10;54.10;;;;;;5074931;28;19924;-66
2023/04/16 10:34:30;;;;;;;;;;;15.00;54.20;;;;;;5075056;28;20427;-66
2023/04/16 10:36:56;;;;;;;;;;;15.10;54.20;;;;;;5074679;28;20007;-66
2023/04/16 10:39:22;;;;;;;;;;;15.10;54.20;;;;;;5093132;28;19924;-66
2023/04/16 10:41:48;;;;;;;;;;;15.10;54.30;;;;;;5074690;28;19920;-66
2023/04/16 10:44:16;;;;;;;;;;;15.10;54.20;;;;;;5074668;28;19920;-66
2023/04/16 10:46:43;;;;;;;;;;;15.10;54.10;;;;;;5074893;28;20042;-66
2023/04/16 10:49:18;;;;;;;;;;;15.10;54.20;;;;;;5074569;28;20012;-66
2023/04/16 10:52:00;;;;;;;;;;;15.10;54.10;;;;;;5092936;28;20275;-66
2023/04/16 10:54:27;;;;;;;;;;;15.10;54.00;;;;;;5075058;28;20320;-66
2023/04/16 10:56:55;;;;;;;;;;;15.10;54.20;;;;;;5074411;28;19920;-66
2023/04/16 10:59:21;;;;;;;;;;;15.10;54.20;;;;;;5092754;28;20030;-66
2023/04/16 11:01:49;;;;;;;;;;;15.10;54.10;;;;;;5074393;28;20023;-66
2023/04/16 11:04:34;;;;;;;;;;;15.10;54.30;;;;;;5074063;28;19927;-66
2023/04/16 11:07:04;;;;;;;;;;;15.10;54.10;;;;;;5092296;28;20003;-66
2023/04/16 11:09:50;;;;;;;;;;;15.20;54.30;;;;;;5074590;28;19926;-66
2023/04/16 11:12:17;;;;;;;;;;;15.10;54.20;;;;;;5070486;28;19936;-66
2023/04/16 11:14:53;;;;;;;;;;;15.10;54.30;;;;;;5070511;28;21261;-66
2023/04/16 11:17:19;;;;;;;;;;;15.10;54.20;;;;;;5070882;28;19921;-66
2023/04/16 11:19:44;;;;;;;;;;;15.10;54.40;;;;;;5070816;28;19920;-66
2023/04/16 11:22:13;;;;;;;;;;;15.10;54.30;;;;;;5072133;28;19927;-66
2023/04/16 11:24:39;;;;;;;;;;;15.10;54.30;;;;;;5071119;28;19931;-66
2023/04/16 11:27:05;;;;;;;;;;;15.10;54.30;;;;;;5071912;28;19925;-66
2023/04/16 11:29:31;;;;;;;;;;;15.20;54.40;;;;;;5071179;28;20348;-66
2023/04/16 11:31:56;;;;;;;;;;;15.10;54.40;;;;;;5070652;28;19924;-66
2023/04/16 11:34:22;;;;;;;;;;;15.10;54.40;;;;;;5072364;28;19921;-66
2023/04/16 11:36:49;;;;;;;;;;;15.10;54.30;;;;;;5070889;28;19927;-66
2023/04/16 11:39:15;;;;;;;;;;;15.10;54.30;;;;;;5071059;28;20399;-66
2023/04/16 11:41:44;;;;;;;;;;;15.10;54.40;;;;;;5072260;28;19956;-65
2023/04/16 11:46:57;;;;;;;;;;;15.20;54.50;;;;;;5110168;27;19912;-66
2023/04/16 11:49:26;;;;;;;;;;;15.10;54.30;;;;;;5108844;28;20286;-66
2023/04/16 11:51:52;;;;;;;;;;;15.10;54.30;;;;;;5109460;28;19920;-66
2023/04/16 11:54:19;;;;;;;;;;;15.10;54.50;;;;;;5109183;28;20007;-66
2023/04/16 11:56:46;;;;;;;;;;;15.10;54.50;;;;;;5109005;28;19920;-66
2023/04/16 12:01:52;;;;;;;;;;;15.20;54.50;;;;;;5128442;27;1836518;-66
2023/04/16 12:04:19;;;;;;;;;;;15.10;54.40;;;;;;5174192;27;19919;-66
2023/04/16 12:07:04;;;;;;;;;;;15.20;54.50;;;;;;5174615;27;19944;-66
2023/04/16 12:09:30;;;;;;;;;;;15.10;54.20;;;;;;5174173;27;19969;-66
2023/04/16 12:11:55;;;;;;;;;;;15.20;54.60;;;;;;5174172;27;19946;-66
2023/04/16 12:14:21;;;;;;;;;;;15.20;54.50;;;;;;5174512;27;19923;-66
2023/04/16 12:16:47;;;;;;;;;;;15.10;54.50;;;;;;5173937;27;19975;-66
2023/04/16 12:19:12;;;;;;;;;;;15.20;54.60;;;;;;5174468;27;20326;-66
2023/04/16 12:21:42;;;;;;;;;;;15.20;54.40;;;;;;5173921;27;19929;-66
2023/04/16 12:24:08;;;;;;;;;;;15.20;54.50;;;;;;5174292;27;19926;-66
2023/04/16 12:26:36;;;;;;;;;;;15.20;54.60;;;;;;5173842;27;19923;-66
2023/04/16 12:29:21;;;;;;;;;;;15.20;54.70;;;;;;5192679;27;19925;-66
2023/04/16 12:31:48;;;;;;;;;;;15.20;54.70;;;;;;5174096;27;20354;-66
2023/04/16 12:34:14;;;;;;;;;;;15.10;54.60;;;;;;5157406;27;19923;-67
2023/04/16 12:36:40;;;;;;;;;;;15.20;54.70;;;;;;5171784;27;19925;-66
2023/04/16 12:39:06;;;;;;;;;;;15.20;54.60;;;;;;5171421;27;19934;-66
2023/04/16 12:41:33;;;;;;;;;;;15.20;54.80;;;;;;5171461;27;19926;-66
2023/04/16 12:44:02;;;;;;;;;;;15.20;54.90;;;;;;5171364;27;19919;-66
2023/04/16 12:46:28;;;;;;;;;;;15.20;54.90;;;;;;5152785;27;19922;-66
2023/04/16 12:48:55;;;;;;;;;;;15.20;54.80;;;;;;5171461;27;19923;-66
2023/04/16 12:51:21;;;;;;;;;;;15.10;54.70;;;;;;5153039;27;19919;-66
2023/04/16 12:53:47;;;;;;;;;;;15.20;55.00;;;;;;5171323;27;19919;-66
2023/04/16 12:56:12;;;;;;;;;;;15.20;55.00;;;;;;5152621;27;20302;-66
2023/04/16 12:58:38;;;;;;;;;;;15.20;54.90;;;;;;5152476;27;19919;-66
2023/04/16 13:01:03;;;;;;;;;;;15.20;54.80;;;;;;5151954;27;19927;-66
2023/04/16 13:03:29;;;;;;;;;;;15.20;54.90;;;;;;5152331;27;19926;-66
2023/04/16 13:05:55;;;;;;;;;;;15.20;54.90;;;;;;5152264;27;19919;-66
2023/04/16 13:08:21;;;;;;;;;;;15.20;55.00;;;;;;5152359;27;19938;-66
2023/04/16 13:10:46;;;;;;;;;;;15.20;54.90;;;;;;5152567;27;19919;-66
2023/04/16 13:13:12;;;;;;;;;;;15.20;54.90;;;;;;5138827;27;20479;-66
2023/04/16 13:15:37;;;;;;;;;;;15.20;54.80;;;;;;5138208;27;20415;-66
2023/04/16 13:18:03;;;;;;;;;;;15.20;55.10;;;;;;5157068;27;19923;-66
2023/04/16 13:20:28;;;;;;;;;;;15.20;55.10;;;;;;5156936;27;19930;-66
2023/04/16 13:22:54;;;;;;;;;;;15.20;55.00;;;;;;5138232;27;19919;-66
2023/04/16 13:25:20;;;;;;;;;;;15.20;54.90;;;;;;5138405;27;19919;-66
2023/04/16 13:27:45;;;;;;;;;;;15.20;54.90;;;;;;5138427;27;20406;-66
2023/04/16 13:30:11;;;;;;;;;;;15.20;55.10;;;;;;5156550;27;19919;-66
2023/04/16 13:32:36;;;;;;;;;;;15.20;54.90;;;;;;5138024;27;19957;-66
2023/04/16 13:35:02;;;;;;;;;;;15.20;55.10;;;;;;5137890;27;19919;-67
2023/04/16 13:37:28;;;;;;;;;;;15.20;54.90;;;;;;5137347;27;19925;-66
2023/04/16 13:39:53;;;;;;;;;;;15.20;54.80;;;;;;5137736;27;20025;-66
2023/04/16 13:42:19;;;;;;;;;;;15.20;55.00;;;;;;5138202;27;20002;-66
2023/04/16 13:44:47;;;;;;;;;;;15.30;55.10;;;;;;5156363;27;19954;-66
2023/04/16 13:47:13;;;;;;;;;;;15.30;55.10;;;;;;5137637;27;19918;-66
2023/04/16 13:49:41;;;;;;;;;;;15.30;54.90;;;;;;5137623;27;19926;-66
2023/04/16 13:52:07;;;;;;;;;;;15.30;55.20;;;;;;5137781;27;19919;-66
2023/04/16 13:54:32;;;;;;;;;;;15.30;54.90;;;;;;5138011;27;19919;-66
2023/04/16 13:56:58;;;;;;;;;;;15.30;54.90;;;;;;5137474;27;19919;-66
2023/04/16 13:59:23;;;;;;;;;;;15.30;54.90;;;;;;5156289;27;19923;-66
2023/04/16 14:01:49;;;;;;;;;;;15.30;55.20;;;;;;5155689;27;19929;-66
2023/04/16 14:04:15;;;;;;;;;;;15.30;54.80;;;;;;5137460;27;19918;-66
2023/04/16 14:06:40;;;;;;;;;;;15.30;55.00;;;;;;5137321;27;19972;-66
2023/04/16 14:09:08;;;;;;;;;;;15.30;55.20;;;;;;5155917;27;19998;-67
2023/04/16 14:11:33;;;;;;;;;;;15.30;55.30;;;;;;5137531;27;19958;-66
2023/04/16 14:13:59;;;;;;;;;;;15.30;55.10;;;;;;5137238;27;20360;-66
2023/04/16 14:16:25;;;;;;;;;;;15.30;55.10;;;;;;5136959;27;19919;-66